sensor_id;sensor_type;location;lat;lon;timestamp;P1;durP1;ratioP1;P2;durP2;ratioP2
16916;SDS011;8575;52.418;13.492;2023-07-08T00:01:24;74.32;;;31.83;;
16916;SDS011;8575;52.418;13.492;2023-07-08T00:03:27;73.32;;;31.67;;
16916;SDS011;8575;52.418;13.492;2023-07-08T00:05:29;74.25;;;32.15;;
16916;SDS011;8575;52.418;13.492;2023-07-08T00:07:31;76.20;;;32.28;;
16916;SDS011;8575;52.418;13.492;2023-07-08T00:09:36;76.72;;;34.28;;
16916;SDS011;8575;52.418;13.492;2023-07-08T00:11:40;73.53;;;31.75;;
16916;SDS011;8575;52.418;13.492;2023-07-08T00:13:43;73.65;;;32.13;;
16916;SDS011;8575;52.418;13.492;2023-07-08T00:15:45;74.20;;;32.08;;
16916;SDS011;8575;52.418;13.492;2023-07-08T00:17:47;75.63;;;32.55;;
16916;SDS011;8575;52.418;13.492;2023-07-08T00:19:51;77.57;;;33.88;;
16916;SDS011;8575;52.418;13.492;2023-07-08T00:21:55;76.43;;;32.53;;
16916;SDS011;8575;52.418;13.492;2023-07-08T00:23:57;78.07;;;33.73;;
16916;SDS011;8575;52.418;13.492;2023-07-08T00:26:00;76.97;;;32.78;;
16916;SDS011;8575;52.418;13.492;2023-07-08T00:28:04;75.18;;;33.40;;
16916;SDS011;8575;52.418;13.492;2023-07-08T00:30:11;74.07;;;32.30;;
16916;SDS011;8575;52.418;13.492;2023-07-08T00:32:19;73.35;;;31.83;;
16916;SDS011;8575;52.418;13.492;2023-07-08T00:34:21;74.25;;;32.30;;
16916;SDS011;8575;52.418;13.492;2023-07-08T00:36:24;74.07;;;31.55;;
16916;SDS011;8575;52.418;13.492;2023-07-08T00:38:28;73.65;;;32.08;;
16916;SDS011;8575;52.418;13.492;2023-07-08T00:40:31;74.00;;;31.90;;
16916;SDS011;8575;52.418;13.492;2023-07-08T00:42:38;73.70;;;32.55;;
16916;SDS011;8575;52.418;13.492;2023-07-08T00:44:41;70.82;;;31.48;;
16916;SDS011;8575;52.418;13.492;2023-07-08T00:46:47;70.00;;;31.13;;
16916;SDS011;8575;52.418;13.492;2023-07-08T00:48:53;69.70;;;31.42;;
16916;SDS011;8575;52.418;13.492;2023-07-08T00:50:56;71.00;;;31.90;;
16916;SDS011;8575;52.418;13.492;2023-07-08T00:55:23;36.20;;;24.10;;
16916;SDS011;8575;52.418;13.492;2023-07-08T00:57:26;45.60;;;27.90;;
16916;SDS011;8575;52.418;13.492;2023-07-08T00:59:31;40.10;;;24.90;;
16916;SDS011;8575;52.418;13.492;2023-07-08T01:03:40;88.63;;;34.53;;
16916;SDS011;8575;52.418;13.492;2023-07-08T01:07:49;90.57;;;34.40;;
16916;SDS011;8575;52.418;13.492;2023-07-08T01:11:57;90.53;;;35.37;;
16916;SDS011;8575;52.418;13.492;2023-07-08T01:16:04;89.50;;;34.67;;
16916;SDS011;8575;52.418;13.492;2023-07-08T01:20:10;90.15;;;34.05;;
16916;SDS011;8575;52.418;13.492;2023-07-08T01:24:18;89.30;;;34.10;;
16916;SDS011;8575;52.418;13.492;2023-07-08T01:28:23;88.38;;;34.25;;
16916;SDS011;8575;52.418;13.492;2023-07-08T01:32:27;85.25;;;33.45;;
16916;SDS011;8575;52.418;13.492;2023-07-08T01:36:34;62.03;;;30.02;;
16916;SDS011;8575;52.418;13.492;2023-07-08T01:42:49;83.35;;;34.40;;
16916;SDS011;8575;52.418;13.492;2023-07-08T01:55:04;83.88;;;32.97;;
16916;SDS011;8575;52.418;13.492;2023-07-08T02:03:13;83.20;;;32.83;;
16916;SDS011;8575;52.418;13.492;2023-07-08T02:07:17;57.40;;;29.15;;
16916;SDS011;8575;52.418;13.492;2023-07-08T02:11:23;69.65;;;32.28;;
16916;SDS011;8575;52.418;13.492;2023-07-08T02:29:43;82.43;;;33.47;;
16916;SDS011;8575;52.418;13.492;2023-07-08T02:43:59;81.53;;;33.23;;
16916;SDS011;8575;52.418;13.492;2023-07-08T03:06:27;81.40;;;33.50;;
16916;SDS011;8575;52.418;13.492;2023-07-08T05:11:14;78.80;;;33.83;;
16916;SDS011;8575;52.418;13.492;2023-07-08T05:19:21;75.70;;;32.13;;
16916;SDS011;8575;52.418;13.492;2023-07-08T05:29:35;74.97;;;31.98;;
16916;SDS011;8575;52.418;13.492;2023-07-08T05:50:02;70.97;;;32.20;;
16916;SDS011;8575;52.418;13.492;2023-07-08T06:34:55;67.50;;;30.85;;
16916;SDS011;8575;52.418;13.492;2023-07-08T08:18:57;58.03;;;30.15;;
16916;SDS011;8575;52.418;13.492;2023-07-08T13:56:17;82.40;;;34.25;;
16916;SDS011;8575;52.418;13.492;2023-07-08T14:06:36;72.78;;;32.90;;
16916;SDS011;8575;52.418;13.492;2023-07-08T14:14:47;74.25;;;32.80;;
16916;SDS011;8575;52.418;13.492;2023-07-08T14:18:53;66.10;;;31.17;;
16916;SDS011;8575;52.418;13.492;2023-07-08T14:22:58;75.00;;;32.58;;
16916;SDS011;8575;52.418;13.492;2023-07-08T14:27:06;77.60;;;33.67;;
16916;SDS011;8575;52.418;13.492;2023-07-08T14:31:17;80.67;;;33.03;;
16916;SDS011;8575;52.418;13.492;2023-07-08T14:35:23;83.03;;;33.92;;
16916;SDS011;8575;52.418;13.492;2023-07-08T14:39:29;87.00;;;36.20;;
16916;SDS011;8575;52.418;13.492;2023-07-08T14:43:33;86.18;;;34.03;;
16916;SDS011;8575;52.418;13.492;2023-07-08T14:47:42;88.07;;;35.22;;
16916;SDS011;8575;52.418;13.492;2023-07-08T14:51:46;88.93;;;37.13;;
16916;SDS011;8575;52.418;13.492;2023-07-08T14:57:53;93.15;;;35.75;;
16916;SDS011;8575;52.418;13.492;2023-07-08T15:06:08;90.90;;;34.90;;
16916;SDS011;8575;52.418;13.492;2023-07-08T15:10:13;74.22;;;32.63;;
16916;SDS011;8575;52.418;13.492;2023-07-08T15:20:26;89.85;;;34.30;;
16916;SDS011;8575;52.418;13.492;2023-07-08T15:24:30;93.10;;;34.47;;
16916;SDS011;8575;52.418;13.492;2023-07-08T15:28:38;93.55;;;34.47;;
16916;SDS011;8575;52.418;13.492;2023-07-08T15:32:44;137.40;;;39.90;;
16916;SDS011;8575;52.418;13.492;2023-07-08T15:34:47;106.70;;;37.13;;
16916;SDS011;8575;52.418;13.492;2023-07-08T15:36:50;106.70;;;36.67;;
16916;SDS011;8575;52.418;13.492;2023-07-08T15:38:53;107.10;;;36.43;;
16916;SDS011;8575;52.418;13.492;2023-07-08T15:40:55;106.97;;;36.90;;
16916;SDS011;8575;52.418;13.492;2023-07-08T15:42:58;107.57;;;37.63;;
16916;SDS011;8575;52.418;13.492;2023-07-08T15:45:01;104.93;;;36.47;;
16916;SDS011;8575;52.418;13.492;2023-07-08T15:47:04;102.10;;;36.10;;
16916;SDS011;8575;52.418;13.492;2023-07-08T15:49:10;101.83;;;37.10;;
16916;SDS011;8575;52.418;13.492;2023-07-08T15:51:15;98.57;;;35.40;;
16916;SDS011;8575;52.418;13.492;2023-07-08T15:53:20;99.03;;;35.93;;
16916;SDS011;8575;52.418;13.492;2023-07-08T15:55:24;98.20;;;35.63;;
16916;SDS011;8575;52.418;13.492;2023-07-08T15:57:27;97.23;;;35.73;;
16916;SDS011;8575;52.418;13.492;2023-07-08T15:59:29;95.30;;;35.40;;
16916;SDS011;8575;52.418;13.492;2023-07-08T16:01:32;95.27;;;35.70;;
16916;SDS011;8575;52.418;13.492;2023-07-08T16:03:35;95.53;;;35.63;;
16916;SDS011;8575;52.418;13.492;2023-07-08T16:05:38;94.87;;;35.67;;
16916;SDS011;8575;52.418;13.492;2023-07-08T16:07:40;92.13;;;35.70;;
16916;SDS011;8575;52.418;13.492;2023-07-08T16:09:44;94.47;;;36.87;;
16916;SDS011;8575;52.418;13.492;2023-07-08T16:11:46;94.27;;;35.93;;
16916;SDS011;8575;52.418;13.492;2023-07-08T16:13:49;93.30;;;34.93;;
16916;SDS011;8575;52.418;13.492;2023-07-08T16:15:51;92.77;;;35.47;;
16916;SDS011;8575;52.418;13.492;2023-07-08T16:17:53;91.70;;;35.43;;
16916;SDS011;8575;52.418;13.492;2023-07-08T16:19:55;90.47;;;35.00;;
16916;SDS011;8575;52.418;13.492;2023-07-08T16:21:58;90.30;;;35.23;;
16916;SDS011;8575;52.418;13.492;2023-07-08T16:24:00;90.60;;;35.47;;
16916;SDS011;8575;52.418;13.492;2023-07-08T16:26:05;90.73;;;35.20;;
16916;SDS011;8575;52.418;13.492;2023-07-08T16:28:08;90.20;;;35.27;;
16916;SDS011;8575;52.418;13.492;2023-07-08T16:30:27;89.47;;;34.63;;
16916;SDS011;8575;52.418;13.492;2023-07-08T16:32:30;90.60;;;35.20;;
16916;SDS011;8575;52.418;13.492;2023-07-08T16:34:33;89.73;;;34.80;;
16916;SDS011;8575;52.418;13.492;2023-07-08T16:36:35;88.57;;;34.80;;
16916;SDS011;8575;52.418;13.492;2023-07-08T16:38:39;88.93;;;34.90;;
16916;SDS011;8575;52.418;13.492;2023-07-08T16:40:41;89.57;;;35.37;;
16916;SDS011;8575;52.418;13.492;2023-07-08T16:42:45;87.90;;;34.63;;
16916;SDS011;8575;52.418;13.492;2023-07-08T16:44:49;86.53;;;33.67;;
16916;SDS011;8575;52.418;13.492;2023-07-08T16:46:51;85.37;;;33.90;;
16916;SDS011;8575;52.418;13.492;2023-07-08T16:48:53;86.87;;;35.03;;
16916;SDS011;8575;52.418;13.492;2023-07-08T16:50:56;84.87;;;34.10;;
16916;SDS011;8575;52.418;13.492;2023-07-08T16:52:58;83.27;;;33.83;;
16916;SDS011;8575;52.418;13.492;2023-07-08T16:55:01;83.93;;;33.77;;
16916;SDS011;8575;52.418;13.492;2023-07-08T16:57:04;85.77;;;34.67;;
16916;SDS011;8575;52.418;13.492;2023-07-08T16:59:08;82.87;;;33.97;;
16916;SDS011;8575;52.418;13.492;2023-07-08T17:01:13;83.63;;;33.80;;
16916;SDS011;8575;52.418;13.492;2023-07-08T17:03:16;84.17;;;34.47;;
16916;SDS011;8575;52.418;13.492;2023-07-08T17:05:20;82.90;;;34.07;;
16916;SDS011;8575;52.418;13.492;2023-07-08T17:07:23;82.67;;;33.90;;
16916;SDS011;8575;52.418;13.492;2023-07-08T17:09:26;83.00;;;34.73;;
16916;SDS011;8575;52.418;13.492;2023-07-08T17:11:28;81.37;;;34.17;;
16916;SDS011;8575;52.418;13.492;2023-07-08T17:13:30;82.17;;;34.30;;
16916;SDS011;8575;52.418;13.492;2023-07-08T17:15:34;80.23;;;33.57;;
16916;SDS011;8575;52.418;13.492;2023-07-08T17:17:37;79.30;;;33.77;;
16916;SDS011;8575;52.418;13.492;2023-07-08T17:19:40;78.63;;;35.27;;
16916;SDS011;8575;52.418;13.492;2023-07-08T17:21:42;76.03;;;33.03;;
16916;SDS011;8575;52.418;13.492;2023-07-08T17:23:45;74.30;;;33.17;;
16916;SDS011;8575;52.418;13.492;2023-07-08T17:25:48;71.90;;;32.87;;
16916;SDS011;8575;52.418;13.492;2023-07-08T17:27:51;70.57;;;32.73;;
16916;SDS011;8575;52.418;13.492;2023-07-08T17:29:55;70.70;;;32.43;;
16916;SDS011;8575;52.418;13.492;2023-07-08T17:31:58;69.63;;;32.30;;
16916;SDS011;8575;52.418;13.492;2023-07-08T17:34:03;69.30;;;32.33;;
16916;SDS011;8575;52.418;13.492;2023-07-08T17:36:08;69.23;;;32.10;;
16916;SDS011;8575;52.418;13.492;2023-07-08T17:38:11;68.00;;;32.13;;
16916;SDS011;8575;52.418;13.492;2023-07-08T17:40:14;68.00;;;31.70;;
16916;SDS011;8575;52.418;13.492;2023-07-08T17:42:16;67.43;;;31.73;;
16916;SDS011;8575;52.418;13.492;2023-07-08T17:44:18;66.67;;;31.60;;
16916;SDS011;8575;52.418;13.492;2023-07-08T17:46:22;66.57;;;31.53;;
16916;SDS011;8575;52.418;13.492;2023-07-08T17:48:27;66.37;;;31.47;;
16916;SDS011;8575;52.418;13.492;2023-07-08T17:50:28;65.33;;;31.53;;
16916;SDS011;8575;52.418;13.492;2023-07-08T17:52:30;64.37;;;30.87;;
16916;SDS011;8575;52.418;13.492;2023-07-08T17:54:32;64.43;;;30.73;;
16916;SDS011;8575;52.418;13.492;2023-07-08T17:56:37;63.67;;;30.80;;
16916;SDS011;8575;52.418;13.492;2023-07-08T17:58:40;63.60;;;31.53;;
16916;SDS011;8575;52.418;13.492;2023-07-08T18:00:43;62.38;;;31.33;;
16916;SDS011;8575;52.418;13.492;2023-07-08T18:02:48;61.92;;;30.83;;
16916;SDS011;8575;52.418;13.492;2023-07-08T18:04:51;61.97;;;30.90;;
16916;SDS011;8575;52.418;13.492;2023-07-08T18:06:55;61.53;;;31.00;;
16916;SDS011;8575;52.418;13.492;2023-07-08T18:08:57;61.70;;;31.00;;
16916;SDS011;8575;52.418;13.492;2023-07-08T18:10:58;61.42;;;30.60;;
16916;SDS011;8575;52.418;13.492;2023-07-08T18:13:01;63.40;;;31.47;;
16916;SDS011;8575;52.418;13.492;2023-07-08T18:15:14;64.93;;;31.43;;
16916;SDS011;8575;52.418;13.492;2023-07-08T18:17:18;63.43;;;30.97;;
16916;SDS011;8575;52.418;13.492;2023-07-08T18:19:21;63.87;;;31.47;;
16916;SDS011;8575;52.418;13.492;2023-07-08T18:21:24;63.30;;;30.73;;
16916;SDS011;8575;52.418;13.492;2023-07-08T18:23:28;63.63;;;30.77;;
16916;SDS011;8575;52.418;13.492;2023-07-08T18:25:33;62.50;;;31.20;;
16916;SDS011;8575;52.418;13.492;2023-07-08T18:27:36;61.47;;;30.23;;
16916;SDS011;8575;52.418;13.492;2023-07-08T18:29:38;62.60;;;31.58;;
16916;SDS011;8575;52.418;13.492;2023-07-08T18:31:40;61.42;;;30.52;;
16916;SDS011;8575;52.418;13.492;2023-07-08T18:33:43;61.17;;;30.90;;
16916;SDS011;8575;52.418;13.492;2023-07-08T18:35:46;61.63;;;31.17;;
16916;SDS011;8575;52.418;13.492;2023-07-08T18:37:50;60.38;;;30.10;;
16916;SDS011;8575;52.418;13.492;2023-07-08T18:39:53;62.13;;;30.80;;
16916;SDS011;8575;52.418;13.492;2023-07-08T18:41:55;62.42;;;30.95;;
16916;SDS011;8575;52.418;13.492;2023-07-08T18:43:57;62.92;;;30.88;;
16916;SDS011;8575;52.418;13.492;2023-07-08T18:45:58;63.70;;;31.52;;
16916;SDS011;8575;52.418;13.492;2023-07-08T18:48:01;63.78;;;31.27;;
16916;SDS011;8575;52.418;13.492;2023-07-08T18:50:03;65.35;;;31.55;;
16916;SDS011;8575;52.418;13.492;2023-07-08T18:52:08;67.10;;;32.13;;
16916;SDS011;8575;52.418;13.492;2023-07-08T18:54:13;64.97;;;31.43;;
16916;SDS011;8575;52.418;13.492;2023-07-08T18:56:16;65.67;;;31.80;;
16916;SDS011;8575;52.418;13.492;2023-07-08T18:58:19;64.73;;;31.07;;
16916;SDS011;8575;52.418;13.492;2023-07-08T19:00:21;64.87;;;30.93;;
16916;SDS011;8575;52.418;13.492;2023-07-08T19:02:30;64.47;;;31.50;;
16916;SDS011;8575;52.418;13.492;2023-07-08T19:04:34;63.72;;;31.05;;
16916;SDS011;8575;52.418;13.492;2023-07-08T19:06:36;63.13;;;31.65;;
16916;SDS011;8575;52.418;13.492;2023-07-08T19:08:38;62.33;;;30.92;;
16916;SDS011;8575;52.418;13.492;2023-07-08T19:10:42;63.20;;;31.15;;
16916;SDS011;8575;52.418;13.492;2023-07-08T19:12:45;61.67;;;31.13;;
16916;SDS011;8575;52.418;13.492;2023-07-08T19:14:48;59.42;;;30.17;;
16916;SDS011;8575;52.418;13.492;2023-07-08T19:16:50;60.03;;;30.92;;
16916;SDS011;8575;52.418;13.492;2023-07-08T19:18:53;59.75;;;30.15;;
16916;SDS011;8575;52.418;13.492;2023-07-08T19:20:55;59.53;;;30.52;;
16916;SDS011;8575;52.418;13.492;2023-07-08T19:22:57;55.58;;;30.10;;
16916;SDS011;8575;52.418;13.492;2023-07-08T19:24:59;57.03;;;30.35;;
16916;SDS011;8575;52.418;13.492;2023-07-08T19:27:02;58.67;;;30.83;;
16916;SDS011;8575;52.418;13.492;2023-07-08T19:29:05;56.17;;;29.45;;
16916;SDS011;8575;52.418;13.492;2023-07-08T19:31:15;56.03;;;29.67;;
16916;SDS011;8575;52.418;13.492;2023-07-08T19:33:20;54.70;;;29.33;;
16916;SDS011;8575;52.418;13.492;2023-07-08T19:35:24;55.83;;;29.80;;
16916;SDS011;8575;52.418;13.492;2023-07-08T19:37:27;56.75;;;30.08;;
16916;SDS011;8575;52.418;13.492;2023-07-08T19:39:29;55.40;;;31.02;;
16916;SDS011;8575;52.418;13.492;2023-07-08T19:41:33;53.00;;;28.98;;
16916;SDS011;8575;52.418;13.492;2023-07-08T19:43:38;51.55;;;28.88;;
16916;SDS011;8575;52.418;13.492;2023-07-08T19:45:41;48.90;;;28.35;;
16916;SDS011;8575;52.418;13.492;2023-07-08T19:49:45;96.78;;;36.40;;
16916;SDS011;8575;52.418;13.492;2023-07-08T19:51:48;72.33;;;32.13;;
16916;SDS011;8575;52.418;13.492;2023-07-08T19:53:50;69.63;;;32.15;;
16916;SDS011;8575;52.418;13.492;2023-07-08T19:55:52;69.22;;;32.55;;
16916;SDS011;8575;52.418;13.492;2023-07-08T19:57:55;69.13;;;32.25;;
16916;SDS011;8575;52.418;13.492;2023-07-08T19:59:58;68.10;;;32.33;;
16916;SDS011;8575;52.418;13.492;2023-07-08T20:02:01;68.50;;;32.05;;
16916;SDS011;8575;52.418;13.492;2023-07-08T20:04:03;67.82;;;31.67;;
16916;SDS011;8575;52.418;13.492;2023-07-08T20:06:09;68.35;;;32.15;;
16916;SDS011;8575;52.418;13.492;2023-07-08T20:08:21;67.88;;;31.98;;
16916;SDS011;8575;52.418;13.492;2023-07-08T20:10:24;67.07;;;31.40;;
16916;SDS011;8575;52.418;13.492;2023-07-08T20:12:26;67.38;;;31.70;;
16916;SDS011;8575;52.418;13.492;2023-07-08T20:14:28;67.28;;;31.05;;
16916;SDS011;8575;52.418;13.492;2023-07-08T20:16:32;68.63;;;32.40;;
16916;SDS011;8575;52.418;13.492;2023-07-08T20:18:34;68.57;;;32.17;;
16916;SDS011;8575;52.418;13.492;2023-07-08T20:20:37;68.40;;;32.20;;
16916;SDS011;8575;52.418;13.492;2023-07-08T20:22:39;68.27;;;31.77;;
16916;SDS011;8575;52.418;13.492;2023-07-08T20:24:41;68.00;;;31.77;;
16916;SDS011;8575;52.418;13.492;2023-07-08T20:26:46;68.30;;;31.53;;
16916;SDS011;8575;52.418;13.492;2023-07-08T20:28:48;67.10;;;31.33;;
16916;SDS011;8575;52.418;13.492;2023-07-08T20:30:50;66.43;;;31.52;;
16916;SDS011;8575;52.418;13.492;2023-07-08T20:32:58;66.10;;;31.17;;
16916;SDS011;8575;52.418;13.492;2023-07-08T20:35:01;65.55;;;31.10;;
16916;SDS011;8575;52.418;13.492;2023-07-08T20:37:10;64.40;;;31.15;;
16916;SDS011;8575;52.418;13.492;2023-07-08T20:39:19;64.82;;;31.23;;
16916;SDS011;8575;52.418;13.492;2023-07-08T20:41:28;65.18;;;31.02;;
16916;SDS011;8575;52.418;13.492;2023-07-08T20:43:34;64.07;;;31.00;;
16916;SDS011;8575;52.418;13.492;2023-07-08T20:45:37;63.42;;;30.88;;
16916;SDS011;8575;52.418;13.492;2023-07-08T20:47:39;63.50;;;31.10;;
16916;SDS011;8575;52.418;13.492;2023-07-08T20:49:48;63.53;;;31.45;;
16916;SDS011;8575;52.418;13.492;2023-07-08T20:51:50;63.08;;;30.48;;
16916;SDS011;8575;52.418;13.492;2023-07-08T20:53:53;64.03;;;31.02;;
16916;SDS011;8575;52.418;13.492;2023-07-08T20:55:58;64.28;;;31.65;;
16916;SDS011;8575;52.418;13.492;2023-07-08T20:58:04;62.92;;;30.98;;
16916;SDS011;8575;52.418;13.492;2023-07-08T21:00:20;61.78;;;30.63;;
16916;SDS011;8575;52.418;13.492;2023-07-08T21:02:25;61.00;;;29.85;;
16916;SDS011;8575;52.418;13.492;2023-07-08T21:04:30;61.58;;;30.10;;
16916;SDS011;8575;52.418;13.492;2023-07-08T21:06:39;62.50;;;30.80;;
16916;SDS011;8575;52.418;13.492;2023-07-08T21:08:41;61.22;;;30.25;;
16916;SDS011;8575;52.418;13.492;2023-07-08T21:10:43;62.08;;;31.10;;
16916;SDS011;8575;52.418;13.492;2023-07-08T21:12:46;61.08;;;30.33;;
16916;SDS011;8575;52.418;13.492;2023-07-08T21:14:48;61.42;;;30.63;;
16916;SDS011;8575;52.418;13.492;2023-07-08T21:16:50;60.58;;;30.42;;
16916;SDS011;8575;52.418;13.492;2023-07-08T21:18:56;58.65;;;30.15;;
16916;SDS011;8575;52.418;13.492;2023-07-08T21:20:59;56.42;;;29.98;;
16916;SDS011;8575;52.418;13.492;2023-07-08T21:23:07;55.97;;;29.73;;
16916;SDS011;8575;52.418;13.492;2023-07-08T21:25:22;54.80;;;29.40;;
16916;SDS011;8575;52.418;13.492;2023-07-08T21:27:26;55.05;;;29.58;;
16916;SDS011;8575;52.418;13.492;2023-07-08T21:29:29;56.50;;;30.00;;
16916;SDS011;8575;52.418;13.492;2023-07-08T21:31:31;56.53;;;29.50;;
16916;SDS011;8575;52.418;13.492;2023-07-08T21:33:34;57.17;;;29.98;;
16916;SDS011;8575;52.418;13.492;2023-07-08T21:35:38;56.78;;;29.52;;
16916;SDS011;8575;52.418;13.492;2023-07-08T21:37:43;52.65;;;28.55;;
16916;SDS011;8575;52.418;13.492;2023-07-08T21:39:50;54.58;;;29.27;;
16916;SDS011;8575;52.418;13.492;2023-07-08T21:41:52;54.70;;;29.25;;
16916;SDS011;8575;52.418;13.492;2023-07-08T21:43:57;55.88;;;29.80;;
16916;SDS011;8575;52.418;13.492;2023-07-08T21:45:59;54.92;;;29.25;;
16916;SDS011;8575;52.418;13.492;2023-07-08T21:48:05;54.03;;;28.98;;
16916;SDS011;8575;52.418;13.492;2023-07-08T21:50:08;54.50;;;29.27;;
16916;SDS011;8575;52.418;13.492;2023-07-08T21:52:11;53.83;;;29.13;;
16916;SDS011;8575;52.418;13.492;2023-07-08T21:54:13;53.83;;;28.88;;
16916;SDS011;8575;52.418;13.492;2023-07-08T21:56:17;52.95;;;28.95;;
16916;SDS011;8575;52.418;13.492;2023-07-08T21:58:20;54.42;;;29.35;;
16916;SDS011;8575;52.418;13.492;2023-07-08T22:00:22;53.08;;;28.42;;
16916;SDS011;8575;52.418;13.492;2023-07-08T22:02:41;54.05;;;30.00;;
16916;SDS011;8575;52.418;13.492;2023-07-08T22:04:47;54.25;;;29.33;;
16916;SDS011;8575;52.418;13.492;2023-07-08T22:06:53;53.92;;;29.08;;
16916;SDS011;8575;52.418;13.492;2023-07-08T22:08:58;53.58;;;29.15;;
16916;SDS011;8575;52.418;13.492;2023-07-08T22:11:01;54.00;;;28.58;;
16916;SDS011;8575;52.418;13.492;2023-07-08T22:13:04;53.88;;;29.05;;
16916;SDS011;8575;52.418;13.492;2023-07-08T22:15:26;54.65;;;29.45;;
16916;SDS011;8575;52.418;13.492;2023-07-08T22:17:29;53.38;;;28.63;;
16916;SDS011;8575;52.418;13.492;2023-07-08T22:19:30;56.28;;;30.73;;
16916;SDS011;8575;52.418;13.492;2023-07-08T22:21:33;55.03;;;29.23;;
16916;SDS011;8575;52.418;13.492;2023-07-08T22:23:39;57.05;;;29.58;;
16916;SDS011;8575;52.418;13.492;2023-07-08T22:25:41;57.17;;;29.38;;
16916;SDS011;8575;52.418;13.492;2023-07-08T22:27:43;57.45;;;30.38;;
16916;SDS011;8575;52.418;13.492;2023-07-08T22:29:49;57.92;;;29.63;;
16916;SDS011;8575;52.418;13.492;2023-07-08T22:31:52;58.83;;;29.95;;
16916;SDS011;8575;52.418;13.492;2023-07-08T22:33:54;57.72;;;29.90;;
16916;SDS011;8575;52.418;13.492;2023-07-08T22:35:57;59.20;;;30.50;;
16916;SDS011;8575;52.418;13.492;2023-07-08T22:37:59;58.15;;;30.35;;
16916;SDS011;8575;52.418;13.492;2023-07-08T22:40:02;58.47;;;30.20;;
16916;SDS011;8575;52.418;13.492;2023-07-08T22:42:07;57.05;;;29.63;;
16916;SDS011;8575;52.418;13.492;2023-07-08T22:44:10;57.50;;;30.13;;
16916;SDS011;8575;52.418;13.492;2023-07-08T22:46:14;55.80;;;28.95;;
16916;SDS011;8575;52.418;13.492;2023-07-08T22:48:16;55.65;;;28.83;;
16916;SDS011;8575;52.418;13.492;2023-07-08T22:50:26;57.05;;;29.98;;
16916;SDS011;8575;52.418;13.492;2023-07-08T22:52:37;56.00;;;29.60;;
16916;SDS011;8575;52.418;13.492;2023-07-08T22:54:40;57.47;;;30.02;;
16916;SDS011;8575;52.418;13.492;2023-07-08T22:56:42;57.17;;;30.17;;
16916;SDS011;8575;52.418;13.492;2023-07-08T22:58:44;57.22;;;30.08;;
16916;SDS011;8575;52.418;13.492;2023-07-08T23:00:46;56.58;;;29.65;;
16916;SDS011;8575;52.418;13.492;2023-07-08T23:02:50;56.33;;;29.25;;
16916;SDS011;8575;52.418;13.492;2023-07-08T23:04:52;56.35;;;29.40;;
16916;SDS011;8575;52.418;13.492;2023-07-08T23:06:55;55.88;;;29.60;;
16916;SDS011;8575;52.418;13.492;2023-07-08T23:09:00;56.17;;;29.80;;
16916;SDS011;8575;52.418;13.492;2023-07-08T23:11:03;54.20;;;29.15;;
16916;SDS011;8575;52.418;13.492;2023-07-08T23:13:05;53.05;;;28.45;;
16916;SDS011;8575;52.418;13.492;2023-07-08T23:15:09;52.05;;;28.67;;
16916;SDS011;8575;52.418;13.492;2023-07-08T23:17:11;49.88;;;28.38;;
16916;SDS011;8575;52.418;13.492;2023-07-08T23:19:15;50.45;;;28.13;;
16916;SDS011;8575;52.418;13.492;2023-07-08T23:21:18;47.22;;;27.77;;
16916;SDS011;8575;52.418;13.492;2023-07-08T23:23:21;45.42;;;27.63;;
16916;SDS011;8575;52.418;13.492;2023-07-08T23:25:23;43.40;;;27.30;;
16916;SDS011;8575;52.418;13.492;2023-07-08T23:27:25;41.60;;;26.70;;
16916;SDS011;8575;52.418;13.492;2023-07-08T23:29:28;46.33;;;28.80;;
16916;SDS011;8575;52.418;13.492;2023-07-08T23:31:31;41.90;;;27.15;;
16916;SDS011;8575;52.418;13.492;2023-07-08T23:33:35;43.00;;;30.10;;
16916;SDS011;8575;52.418;13.492;2023-07-08T23:35:38;36.60;;;27.70;;
16916;SDS011;8575;52.418;13.492;2023-07-08T23:39:43;78.38;;;34.13;;
16916;SDS011;8575;52.418;13.492;2023-07-08T23:41:45;54.75;;;29.33;;
16916;SDS011;8575;52.418;13.492;2023-07-08T23:43:47;38.95;;;25.40;;
16916;SDS011;8575;52.418;13.492;2023-07-08T23:45:50;44.73;;;27.47;;
16916;SDS011;8575;52.418;13.492;2023-07-08T23:47:52;43.80;;;29.10;;
16916;SDS011;8575;52.418;13.492;2023-07-08T23:51:58;78.15;;;35.22;;
16916;SDS011;8575;52.418;13.492;2023-07-08T23:54:06;46.50;;;30.30;;
16916;SDS011;8575;52.418;13.492;2023-07-08T23:56:10;42.90;;;26.80;;
16916;SDS011;8575;52.418;13.492;2023-07-08T23:58:23;39.40;;;30.00;;
